Weather at Antelope Valley Intermediate Field [CLOSED]

Public forecast

Using degrees Fahrenheit for public forecast. Weather courtesy of forecast.io.

Closest aviation weather report (METAR) to Antelope Valley Intermediate Field

Closest report is General WM J Fox Airfield, 21.8 nm (40.3 km) E. Retrieved 2022/05/19 01:56 UTC (1 hour ago):

KWJF 190156Z 26018KT 10SM CLR 31/03 A2994 RMK AO2 SLP118 T03060028

Closest aviation forecast (TAF) to Antelope Valley Intermediate Field

Closest forecast is General WM J Fox Airfield, 21.8 nm (40.3 km) E. Retrieved 2022-05-19 00:28 UTC (2 hours ago):

TAF KWJF 190025Z 1900/1924 28018G26KT P6SM SKC FM190500 26010KT P6SM SKC FM191900 28015G20KT P6SM SKC